Flight Track Log - Related Links

Times and Time Zones

All times are in EDT time to prevent confusion due to time zone crossing. See the UAL4563 flight status page for this flight to view local times or setup timezone preferences in your user account.

Time Position Orientation Groundspeed Altitude Reporting Facility
EDT Latitude Longitude Course Direction KTS MPH feet Rate Location/Type
Thu 07:06:10 PM 41.4194 -81.8458 25° Northeast 176 203 1,600  Level Cleveland Center
Thu 07:07:23 PM 41.4844 -81.8056 25° Northeast 250 288 3,600 1,820 Climbing Cleveland Center
Thu 07:08:12 PM 41.5306 -81.7675 32° Northeast 274 315 5,300 2,312 Climbing Cleveland Center
Thu 07:09:12 PM 41.5917 -81.6992 40° Northeast 274 315 7,800 2,300 Climbing Cleveland Center
Thu 07:10:12 PM 41.6531 -81.6281 41° Northeast 280 322 9,900 1,600 Climbing Cleveland Center
Thu 07:11:12 PM 41.7225 -81.5514 39° Northeast 298 343 11,000 1,050 Climbing Cleveland Center
Thu 07:12:12 PM 41.7981 -81.4661 40° Northeast 333 383 12,000 950 Climbing Cleveland Center
Thu 07:13:12 PM 41.8492 -81.3442 61° Northeast 347 399 12,900 1,200 Climbing Cleveland Center
Thu 07:14:12 PM 41.8708 -81.2078 78° East 367 422 14,400 1,450 Climbing Cleveland Center
Thu 07:15:12 PM 41.8964 -81.0686 76° East 373 429 15,800 1,250 Climbing Cleveland Center
Thu 07:16:12 PM 41.9136 -80.9431 80° East 373 429 16,900 1,150 Climbing Cleveland Center
Thu 07:17:12 PM 41.9347 -80.8064 78° East 373 429 18,100 1,250 Climbing Cleveland Center
Thu 07:18:12 PM 41.9578 -80.6669 77° East 373 429 19,400 1,150 Climbing Cleveland Center
Thu 07:19:12 PM 41.9808 -80.5272 77° East 380 437 20,400 1,000 Climbing Cleveland Center
Thu 07:20:12 PM 42.0056 -80.3792 77° East 394 453 21,400 1,000 Climbing Cleveland Center
Thu 07:22:12 PM 42.0525 -80.0603 79° East 401 461 23,400 1,000 Climbing Cleveland Center
Thu 07:23:12 PM 42.0747 -79.9089 79° East 408 470 24,400 1,000 Climbing Cleveland Center
Thu 07:24:12 PM 42.0986 -79.7519 78° East 408 470 25,400 1,000 Climbing Cleveland Center
Thu 07:25:12 PM 42.1206 -79.5978 79° East 414 476 26,400 950 Climbing Cleveland Center
Thu 07:26:12 PM 42.1442 -79.4433 78° East 414 476 27,300 950 Climbing Cleveland Center
Thu 07:27:12 PM 42.1633 -79.2889 80° East 409 471 28,300 1,000 Climbing Cleveland Center
Thu 07:28:12 PM 42.1864 -79.1372 78° East 409 471 29,300 1,000 Climbing Cleveland Center
Thu 07:29:12 PM 42.2053 -78.9825 81° East 409 471 30,300 850 Climbing Cleveland Center
Thu 07:30:12 PM 42.2281 -78.8278 79° East 409 471 31,000 350 Climbing Cleveland Center
Thu 07:31:12 PM 42.2464 -78.6647 81° East 416 479 31,000  Level Cleveland Center
Thu 07:32:12 PM 42.2683 -78.4956 80° East 436 502 31,000  Level Cleveland Center
Thu 07:33:12 PM 42.2881 -78.3294 81° East 449 517 31,000  Level Cleveland Center
Thu 07:34:12 PM 42.3081 -78.1742 80° East 456 525 31,000  Level Cleveland Center
Thu 07:35:12 PM 42.3292 -78.0047 80° East 456 525 31,000 400 Level Cleveland Center
Thu 07:36:12 PM 42.3483 -77.8383 81° East 451 519 31,800 950 Climbing Cleveland Center
Thu 07:37:12 PM 42.3692 -77.6714 80° East 451 519 32,900 1,150 Climbing Cleveland Center
Thu 07:38:12 PM 42.3858 -77.5078 82° East 446 513 34,100 1,050 Climbing Cleveland Center
Thu 07:39:12 PM 42.4042 -77.3436 81° East 441 507 35,000 270 Climbing Cleveland Center
Thu 07:41:32 PM 42.4461 -76.9539 82° East 440 506 35,000  Level Boston Center
Thu 07:42:32 PM 42.4650 -76.7892 81° East 440 506 35,000  Level Boston Center
Thu 07:43:32 PM 42.4839 -76.6214 81° East 440 506 35,000  Level Boston Center
Thu 07:44:32 PM 42.5003 -76.4536 82° East 445 512 35,000  Level Boston Center
Thu 07:45:32 PM 42.5186 -76.2856 82° East 445 512 35,000  Level Boston Center
Thu 07:46:32 PM 42.5394 -76.1008 81° East 445 512 35,000 -50 Level Boston Center
Thu 07:47:32 PM 42.5550 -75.9325 83° East 445 512 34,900  Descending Boston Center
Thu 07:48:32 PM 42.5706 -75.7669 83° East 445 512 35,000 50 Climbing Boston Center
Thu 07:49:32 PM 42.5858 -75.5986 83° East 445 512 35,000 -350 Level Boston Center
Thu 07:50:32 PM 42.6028 -75.4358 82° East 445 512 34,300 -1,000 Descending Boston Center
Thu 07:51:32 PM 42.6172 -75.2758 83° East 435 501 33,000 -1,350 Descending Boston Center
Thu 07:52:32 PM 42.6314 -75.1211 83° East 424 488 31,600 -1,450 Descending Boston Center
Thu 07:53:32 PM 42.6475 -74.9581 82° East 424 488 30,100 -1,300 Descending Boston Center
Thu 07:54:32 PM 42.6636 -74.7950 82° East 424 488 29,000 -550 Descending Boston Center
Thu 07:55:32 PM 42.6753 -74.6317 84° East 424 488 29,000  Level Boston Center
Thu 07:56:32 PM 42.6889 -74.4625 84° East 429 494 29,000  Level Boston Center
Thu 07:57:32 PM 42.7061 -74.2992 82° East 429 494 29,000  Level Boston Center
Thu 07:58:32 PM 42.7214 -74.1300 83° East 440 506 29,000 -300 Level Boston Center
Thu 07:59:32 PM 42.7319 -73.9636 85° East 440 506 28,400 -600 Descending Boston Center
Thu 08:00:32 PM 42.7444 -73.7972 84° East 440 506 27,800 -650 Descending Boston Center
Thu 08:01:32 PM 42.7569 -73.6278 84° East 440 506 27,100 -600 Descending Boston Center
Thu 08:02:32 PM 42.7603 -73.4781 88° East 440 506 26,600 -550 Descending Boston Center
Thu 08:03:32 PM 42.7681 -73.3056 86° East 445 512 26,000 -600 Descending Boston Center
Thu 08:04:32 PM 42.7733 -73.1303 88° East 450 518 25,400 -650 Descending Boston Center
Thu 08:05:32 PM 42.7786 -72.9492 88° East 455 524 24,700 -700 Descending Boston Center
Thu 08:06:32 PM 42.7875 -72.7825 86° East 456 525 24,000 -1,750 Descending Boston Center
Thu 08:07:32 PM 42.8006 -72.6128 84° East 446 513 21,200 -2,950 Descending Boston Center
Thu 08:08:32 PM 42.8006 -72.4825 90° East 406 467 18,100 -2,950 Descending Boston Center
Thu 08:09:32 PM 42.8067 -72.3439 87° East 379 436 15,300 -3,050 Descending Boston Center
Thu 08:10:32 PM 42.8108 -72.1994 88° East 353 406 12,000 -2,550 Descending Boston Center
Thu 08:11:32 PM 42.8167 -72.0750 86° East 326 375 10,200 -1,400 Descending Boston Center
Thu 08:12:32 PM 42.8206 -71.9703 87° East 299 344 9,200 -1,450 Descending Boston Center
Thu 08:13:32 PM 42.7825 -71.8800 120° Southeast 259 298 7,300 -1,600 Descending Boston Center
Thu 08:14:32 PM 42.7444 -71.7956 122° Southeast 259 298 6,000 -1,450 Descending Boston Center
Thu 08:15:32 PM 42.7439 -71.7108 90° East 231 266 4,400 -1,000 Descending Boston Center
Thu 08:16:32 PM 42.7747 -71.6339 61° Northeast 224 258 4,000 -700 Descending Boston Center
Thu 08:17:32 PM 42.8264 -71.5767 39° Northeast 224 258 3,000 -1,000 Descending Boston Center
Thu 08:18:32 PM 42.8656 -71.5281 42° Northeast 211 243 2,000 -900 Descending Boston Center
Thu 08:19:32 PM 42.8944 -71.4936 41° Northeast 148 170 1,200 -750 Descending Boston Center
Thu 08:20:32 PM 42.9214 -71.4561 46° Northeast 131 151 500 8,900 Descending Boston Center
Thu 08:21:32 PM 42.9481 -71.4275 38° Northeast 131 151 19,000 9,250 Climbing Boston Center
Thu 08:22:32 PM 42.9731 -71.3986 40° Northeast 131 151 19,000  Level Boston Center
Thu 08:23:32 PM 42.9936 -71.3756 39° Northeast 131 151 19,000  Level Boston Center
Thu 08:24:32 PM 43.0244 -71.3411 39° Northeast 131 151 19,000  Level Boston Center
Thu 08:26:00 PM 42.9328 -71.4358 216° Southwest  Level Estimated
Thu 08:33:00 PM 42.9328 -71.4358 216° Southwest  Level Estimated
Thu 08:34:00 PM 42.9328 -71.4358 216° Southwest  Level Estimated
Thu 08:35:00 PM 42.9328 -71.4358 216° Southwest  Level Estimated
Thu 08:36:00 PM 42.9328 -71.4358 216° Southwest  Level Estimated
Thu 08:37:00 PM 42.9328 -71.4358 216° Southwest  Level Estimated
Thu 08:38:00 PM 42.9328 -71.4358 216° Southwest  Level Estimated
Thu 08:39:00 PM 42.9328 -71.4358 216° Southwest  Level Estimated

Login

Don't have an account? Register now (free) for customized features, flight alerts, and more!